createdAt,value
2022-11-08T00:01:17.778Z,75.96
2022-11-08T00:03:47.526Z,75.93
2022-11-08T00:06:34.751Z,75.97
2022-11-08T00:09:22.751Z,76.39
2022-11-08T00:12:10.392Z,77.06
2022-11-08T00:14:40.217Z,77.06
2022-11-08T00:17:10.519Z,76.69
2022-11-08T00:19:40.334Z,77.37
2022-11-08T00:22:12.677Z,78.07
2022-11-08T00:24:42.464Z,78.48
2022-11-08T00:27:17.768Z,78.48
2022-11-08T00:29:47.927Z,77.14
2022-11-08T00:32:20.314Z,77.52
2022-11-08T00:34:50.596Z,77.16
2022-11-08T00:37:22.467Z,78.09
2022-11-08T00:39:52.527Z,78.46
2022-11-08T00:42:22.025Z,78.81
2022-11-08T00:44:51.802Z,78.55
2022-11-08T00:47:21.847Z,78.65
2022-11-08T00:49:51.336Z,78.41
2022-11-08T00:52:21.104Z,79.33
2022-11-08T00:54:50.862Z,79.12
2022-11-08T00:57:31.008Z,78.92
2022-11-08T00:59:52.032Z,78.97
2022-11-08T01:02:21.576Z,79.28
2022-11-08T01:04:51.366Z,79.46
2022-11-08T01:07:21.105Z,79.63
2022-11-08T01:09:50.840Z,79.63
2022-11-08T01:12:20.872Z,80.12
2022-11-08T01:14:50.708Z,81.18
2022-11-08T01:17:20.462Z,81.18
2022-11-08T01:19:50.263Z,80.71
2022-11-08T01:22:19.726Z,80.69
2022-11-08T01:24:49.765Z,79.95
2022-11-08T01:27:19.519Z,80.21
2022-11-08T01:29:49.259Z,81.33
2022-11-08T01:32:19.320Z,80.67
2022-11-08T01:34:49.087Z,80.65
2022-11-08T01:37:19.156Z,80.65
2022-11-08T01:39:48.899Z,80.64
2022-11-08T01:42:18.639Z,80.87
2022-11-08T01:45:02.910Z,81.66
2022-11-08T01:47:32.726Z,81.66
2022-11-08T01:50:11.867Z,81.54
2022-11-08T01:52:47.545Z,81.57
2022-11-08T01:55:22.430Z,81.86
2022-11-08T01:58:12.861Z,81.41
2022-11-08T02:00:42.960Z,82.22
2022-11-08T02:03:15.487Z,81.36
2022-11-08T02:05:46.582Z,80.78
2022-11-08T02:08:21.782Z,81.03
2022-11-08T02:10:53.750Z,81.56
2022-11-08T02:13:26.282Z,81.26
2022-11-08T02:15:56.469Z,81.50
2022-11-08T02:18:29.261Z,82.21
2022-11-08T02:21:26.009Z,82.68
2022-11-08T02:23:59.395Z,81.95
2022-11-08T02:26:36.557Z,81.54
2022-11-08T02:29:25.979Z,81.74
2022-11-08T02:31:56.944Z,81.05
2022-11-08T02:34:29.606Z,80.89
2022-11-08T02:37:00.725Z,81.21
2022-11-08T02:39:32.418Z,82.65
2022-11-08T02:42:02.917Z,81.92
2022-11-08T02:44:32.648Z,81.19
2022-11-08T02:47:02.398Z,81.02
2022-11-08T02:49:32.396Z,81.20
2022-11-08T02:52:02.158Z,81.91
2022-11-08T02:54:32.068Z,81.36
2022-11-08T02:57:01.978Z,80.55
2022-11-08T02:59:31.761Z,80.78
2022-11-08T03:02:01.767Z,81.38
2022-11-08T03:04:31.616Z,81.71
2022-11-08T03:07:01.691Z,80.35
2022-11-08T03:09:31.784Z,80.64
2022-11-08T03:12:01.645Z,81.29
2022-11-08T03:14:31.116Z,80.96
2022-11-08T03:17:00.865Z,80.34
2022-11-08T03:19:30.345Z,80.39
2022-11-08T03:22:00.140Z,79.88
2022-11-08T03:24:29.985Z,80.65
2022-11-08T03:26:59.740Z,80.23
2022-11-08T03:29:29.808Z,80.62
2022-11-08T03:31:59.529Z,79.93
2022-11-08T03:34:29.268Z,79.54
2022-11-08T03:36:59.006Z,79.54
2022-11-08T03:39:28.771Z,80.01
2022-11-08T03:42:00.125Z,80.14
2022-11-08T03:44:30.382Z,79.75
2022-11-08T03:47:01.464Z,80.07
2022-11-08T03:49:31.202Z,80.04
2022-11-08T03:52:00.661Z,80.37
2022-11-08T03:54:30.400Z,79.77
2022-11-08T03:57:00.163Z,79.79
2022-11-08T03:59:29.893Z,80.03
2022-11-08T04:01:59.850Z,80.44
2022-11-08T04:04:29.665Z,81.22
2022-11-08T04:06:59.231Z,80.81
2022-11-08T04:09:28.944Z,80.83
2022-11-08T04:12:16.013Z,80.79
2022-11-08T04:15:03.556Z,80.58
2022-11-08T04:17:50.894Z,80.71
2022-11-08T04:20:38.220Z,80.81
2022-11-08T04:23:07.951Z,80.53
2022-11-08T04:25:37.703Z,79.54
2022-11-08T04:28:09.865Z,79.54
2022-11-08T04:30:39.603Z,79.18
2022-11-08T04:33:09.630Z,78.69
2022-11-08T04:35:39.401Z,78.26
2022-11-08T04:38:11.297Z,78.10
2022-11-08T04:40:41.055Z,78.72
2022-11-08T04:43:10.950Z,78.22
2022-11-08T04:45:41.246Z,77.85
2022-11-08T04:48:11.492Z,77.87
2022-11-08T04:50:41.216Z,77.68
2022-11-08T04:53:10.947Z,77.00
2022-11-08T04:55:40.668Z,77.16
2022-11-08T04:58:11.366Z,77.18
2022-11-08T05:00:41.430Z,77.05
2022-11-08T05:03:10.908Z,76.12
2022-11-08T05:05:40.662Z,76.03
2022-11-08T05:08:11.317Z,75.66
2022-11-08T05:10:41.058Z,76.26
2022-11-08T05:13:10.807Z,75.93
2022-11-08T05:15:40.553Z,75.13
2022-11-08T05:18:10.280Z,74.97
2022-11-08T05:20:58.130Z,74.58
2022-11-08T05:23:27.932Z,74.71
2022-11-08T05:25:58.951Z,75.41
2022-11-08T05:28:28.387Z,74.97
2022-11-08T05:30:58.680Z,74.73
2022-11-08T05:33:28.967Z,74.19
2022-11-08T05:36:04.675Z,74.81
2022-11-08T05:38:32.465Z,74.19
2022-11-08T05:41:09.648Z,74.19
2022-11-08T05:43:39.619Z,74.56
2022-11-08T05:46:11.119Z,74.33
2022-11-08T05:48:42.378Z,74.82
2022-11-08T05:51:13.673Z,74.25
2022-11-08T05:53:43.390Z,75.25
2022-11-08T05:56:13.032Z,74.94
2022-11-08T05:58:42.790Z,75.07
2022-11-08T06:01:15.180Z,74.44
2022-11-08T06:03:45.188Z,74.37
2022-11-08T06:06:19.855Z,75.32
2022-11-08T06:08:52.426Z,74.99
2022-11-08T06:11:25.090Z,74.48
2022-11-08T06:13:56.066Z,74.76
2022-11-08T06:16:26.249Z,74.57
2022-11-08T06:18:56.059Z,74.32
2022-11-08T06:21:27.187Z,74.72
2022-11-08T06:23:56.958Z,75.25
2022-11-08T06:26:26.567Z,75.25
2022-11-08T06:28:56.695Z,74.78
2022-11-08T06:31:26.689Z,74.85
2022-11-08T06:33:56.759Z,74.93
2022-11-08T06:36:26.488Z,74.93
2022-11-08T06:38:56.786Z,74.69
2022-11-08T06:41:29.790Z,74.25
2022-11-08T06:43:59.377Z,74.72
2022-11-08T06:46:29.151Z,74.82
2022-11-08T06:48:58.912Z,74.36
2022-11-08T06:51:28.928Z,74.36
2022-11-08T06:53:59.234Z,74.19
2022-11-08T06:56:28.986Z,74.53
2022-11-08T06:58:58.835Z,74.66
2022-11-08T07:01:28.447Z,74.66
2022-11-08T07:03:58.202Z,74.52
2022-11-08T07:06:27.916Z,74.65
2022-11-08T07:08:57.695Z,74.82
2022-11-08T07:11:27.451Z,74.11
2022-11-08T07:13:57.182Z,73.99
2022-11-08T07:16:26.623Z,73.15
2022-11-08T07:18:56.363Z,72.85
2022-11-08T07:21:26.070Z,72.96
2022-11-08T07:23:56.131Z,72.14
2022-11-08T07:26:25.708Z,71.96
2022-11-08T07:28:55.438Z,71.37
2022-11-08T07:31:25.799Z,70.72
2022-11-08T07:33:55.527Z,70.27
2022-11-08T07:36:24.971Z,70.27
2022-11-08T07:38:54.791Z,69.41
2022-11-08T07:41:24.531Z,69.60
2022-11-08T07:43:54.277Z,68.69
2022-11-08T07:46:24.077Z,68.42
2022-11-08T07:48:54.116Z,68.09
2022-11-08T07:51:23.620Z,68.09
2022-11-08T07:53:53.353Z,68.58
2022-11-08T07:56:26.654Z,68.30
2022-11-08T07:58:56.364Z,68.32
2022-11-08T08:01:26.202Z,68.21
2022-11-08T08:03:56.008Z,68.41
2022-11-08T08:06:26.261Z,67.98
2022-11-08T08:08:55.992Z,68.09
2022-11-08T08:11:30.848Z,68.13
2022-11-08T08:13:57.173Z,68.13
2022-11-08T08:16:26.610Z,67.81
2022-11-08T08:18:56.967Z,67.69
2022-11-08T08:21:26.741Z,67.26
2022-11-08T08:23:56.467Z,66.96
2022-11-08T08:26:26.204Z,66.78
2022-11-08T08:28:55.968Z,66.78
2022-11-08T08:31:25.761Z,66.72
2022-11-08T08:33:55.534Z,66.33
2022-11-08T08:36:25.276Z,66.13
2022-11-08T08:38:54.785Z,66.10
2022-11-08T08:41:24.533Z,65.84
2022-11-08T08:43:54.267Z,65.06
2022-11-08T08:46:24.008Z,65.57
2022-11-08T08:48:53.741Z,64.62
2022-11-08T08:51:23.572Z,64.72
2022-11-08T08:53:53.293Z,64.57
2022-11-08T08:56:22.989Z,64.70
2022-11-08T09:01:39.522Z,63.82
2022-11-08T09:03:55.585Z,63.82
2022-11-08T09:06:25.445Z,64.46
2022-11-08T09:08:55.152Z,64.03
2022-11-08T09:11:24.898Z,64.22
2022-11-08T09:13:54.329Z,63.80
2022-11-08T09:16:24.218Z,63.45
2022-11-08T09:18:54.031Z,63.36
2022-11-08T09:21:24.103Z,63.30
2022-11-08T09:23:53.897Z,63.38
2022-11-08T09:26:23.342Z,63.50
2022-11-08T09:28:53.060Z,62.89
2022-11-08T09:31:22.790Z,62.01
2022-11-08T09:33:52.869Z,62.01
2022-11-08T09:36:22.631Z,62.09
2022-11-08T09:38:52.366Z,62.09
2022-11-08T09:41:30.479Z,61.20
2022-11-08T09:44:23.962Z,61.78
2022-11-08T09:46:59.547Z,61.77
2022-11-08T09:49:34.685Z,61.80
2022-11-08T09:52:06.880Z,62.16
2022-11-08T09:54:44.984Z,62.47
2022-11-08T09:57:29.580Z,62.21
2022-11-08T10:00:05.021Z,62.09
2022-11-08T10:02:37.598Z,61.68
2022-11-08T10:05:11.063Z,61.73
2022-11-08T10:08:00.669Z,61.21
2022-11-08T10:10:33.306Z,61.50
2022-11-08T10:13:23.712Z,61.05
2022-11-08T10:16:11.400Z,61.31
2022-11-08T10:19:00.582Z,61.56
2022-11-08T10:21:58.724Z,61.85
2022-11-08T10:24:37.381Z,62.27
2022-11-08T10:27:19.057Z,62.27
2022-11-08T10:29:51.875Z,60.97
2022-11-08T10:32:25.378Z,60.73
2022-11-08T10:35:04.355Z,60.46
2022-11-08T10:37:35.047Z,59.96
2022-11-08T10:40:34.425Z,59.43
2022-11-08T10:43:13.334Z,59.88
2022-11-08T10:45:43.150Z,59.88
2022-11-08T10:48:16.096Z,59.04
2022-11-08T10:50:48.884Z,57.97
2022-11-08T10:53:27.629Z,58.44
2022-11-08T10:56:04.895Z,58.53
2022-11-08T10:58:43.788Z,58.53
2022-11-08T11:01:19.110Z,58.44
2022-11-08T11:03:49.768Z,58.35
2022-11-08T11:06:30.101Z,58.89
2022-11-08T11:09:05.953Z,58.84
2022-11-08T11:11:38.504Z,58.47
2022-11-08T11:14:22.888Z,58.46
2022-11-08T11:16:58.465Z,58.35
2022-11-08T11:19:29.493Z,57.92
2022-11-08T11:22:09.737Z,57.38
2022-11-08T11:24:51.083Z,57.96
2022-11-08T11:27:29.506Z,57.41
2022-11-08T11:30:22.897Z,57.28
2022-11-08T11:33:20.224Z,57.89
2022-11-08T11:35:50.464Z,57.53
2022-11-08T11:38:39.217Z,57.92
2022-11-08T11:41:12.074Z,57.67
2022-11-08T11:43:47.307Z,57.64
2022-11-08T11:46:25.411Z,57.80
2022-11-08T11:49:02.943Z,58.06
2022-11-08T11:51:32.766Z,57.54
2022-11-08T11:54:05.891Z,57.03
2022-11-08T11:59:51.575Z,56.75
2022-11-08T12:02:41.758Z,56.25
2022-11-08T12:05:31.553Z,56.34
2022-11-08T12:08:07.230Z,56.58
2022-11-08T12:10:49.790Z,55.90
2022-11-08T12:13:28.587Z,55.81
2022-11-08T12:16:19.161Z,56.13
2022-11-08T12:19:17.435Z,55.97
2022-11-08T12:21:55.692Z,55.69
2022-11-08T12:24:52.192Z,56.30
2022-11-08T12:27:36.653Z,56.08
2022-11-08T12:30:14.944Z,55.79
2022-11-08T12:33:05.625Z,56.12
2022-11-08T12:35:47.083Z,55.85
2022-11-08T12:38:35.077Z,56.47
2022-11-08T12:41:13.504Z,55.64
2022-11-08T12:43:49.186Z,56.80
2022-11-08T12:46:19.910Z,56.65
2022-11-08T12:49:03.918Z,56.61
2022-11-08T12:51:52.466Z,57.58
2022-11-08T12:54:28.042Z,57.10
2022-11-08T12:57:00.820Z,56.99
2022-11-08T12:59:39.094Z,56.82
2022-11-08T13:02:17.021Z,56.82
2022-11-08T13:04:50.184Z,56.84
2022-11-08T13:07:44.799Z,56.75
2022-11-08T13:10:52.788Z,56.60
2022-11-08T13:13:53.381Z,56.39
2022-11-08T13:16:25.884Z,56.18
2022-11-08T13:18:58.260Z,55.74
2022-11-08T13:21:31.058Z,55.20
2022-11-08T13:24:38.368Z,55.20
2022-11-08T13:26:43.383Z,55.28
2022-11-08T13:29:21.710Z,55.60
2022-11-08T13:32:03.229Z,55.27
2022-11-08T13:34:38.663Z,55.54
2022-11-08T13:37:30.170Z,55.15
2022-11-08T13:40:20.661Z,55.23
2022-11-08T13:42:59.113Z,55.07
2022-11-08T13:45:31.881Z,55.10
2022-11-08T13:48:04.500Z,55.27
2022-11-08T13:50:48.113Z,54.56
2022-11-08T13:53:23.817Z,55.10
2022-11-08T13:58:38.208Z,54.85
2022-11-08T14:01:25.527Z,54.85
2022-11-08T14:03:57.347Z,54.23
2022-11-08T14:06:36.224Z,55.21
2022-11-08T14:09:25.360Z,55.16
2022-11-08T14:12:07.489Z,55.16
2022-11-08T14:14:54.927Z,54.80
2022-11-08T14:17:36.326Z,55.29
2022-11-08T14:20:22.838Z,55.68
2022-11-08T14:22:52.952Z,55.99
2022-11-08T14:25:34.847Z,55.83
2022-11-08T14:28:08.773Z,55.64
2022-11-08T14:30:38.511Z,56.31
2022-11-08T14:33:20.092Z,56.49
2022-11-08T14:35:58.652Z,56.55
2022-11-08T14:38:33.930Z,56.97
2022-11-08T14:41:06.302Z,56.51
2022-11-08T14:43:39.091Z,56.95
2022-11-08T14:46:15.124Z,57.03
2022-11-08T14:48:55.093Z,57.27
2022-11-08T14:51:26.076Z,57.59
2022-11-08T14:53:56.789Z,57.78
2022-11-08T14:56:28.784Z,58.05
2022-11-08T14:58:58.524Z,57.67
2022-11-08T15:01:30.278Z,57.96
2022-11-08T15:04:09.087Z,57.91
2022-11-08T15:06:44.694Z,58.51
2022-11-08T15:09:23.112Z,58.96
2022-11-08T15:11:55.884Z,58.79
2022-11-08T15:14:28.128Z,59.04
2022-11-08T15:17:03.161Z,58.96
2022-11-08T15:19:42.463Z,59.72
2022-11-08T15:22:33.294Z,59.87
2022-11-08T15:25:17.397Z,59.68
2022-11-08T15:27:51.623Z,59.33
2022-11-08T15:30:24.295Z,60.25
2022-11-08T15:32:54.346Z,59.95
2022-11-08T15:35:38.348Z,59.60
2022-11-08T15:38:30.265Z,60.19
2022-11-08T15:41:03.410Z,60.37
2022-11-08T15:43:38.029Z,60.26
2022-11-08T15:46:12.053Z,60.07
2022-11-08T15:48:41.793Z,60.60
2022-11-08T15:51:11.540Z,60.59
2022-11-08T15:53:41.833Z,60.63
2022-11-08T15:56:14.033Z,60.60
2022-11-08T15:58:44.059Z,60.41
2022-11-08T16:01:19.876Z,61.05
2022-11-08T16:03:49.326Z,61.06
2022-11-08T16:06:18.933Z,60.91
2022-11-08T16:08:48.655Z,60.79
2022-11-08T16:11:23.769Z,61.29
2022-11-08T16:13:53.568Z,60.96
2022-11-08T16:16:22.982Z,61.81
2022-11-08T16:18:53.016Z,61.81
2022-11-08T16:21:22.813Z,61.99
2022-11-08T16:23:52.834Z,61.99
2022-11-08T16:26:22.347Z,62.18
2022-11-08T16:28:52.376Z,62.45
2022-11-08T16:31:22.269Z,61.71
2022-11-08T16:33:53.991Z,62.22
2022-11-08T16:36:26.664Z,62.22
2022-11-08T16:38:59.169Z,62.83
2022-11-08T16:41:28.893Z,62.40
2022-11-08T16:44:00.158Z,62.61
2022-11-08T16:46:30.318Z,62.61
2022-11-08T16:49:00.670Z,62.78
2022-11-08T16:51:30.603Z,63.05
2022-11-08T16:54:02.849Z,63.14
2022-11-08T16:56:32.584Z,63.14
2022-11-08T16:59:02.325Z,63.36
2022-11-08T17:01:34.451Z,63.75
2022-11-08T17:04:04.671Z,64.45
2022-11-08T17:06:34.159Z,63.87
2022-11-08T17:09:04.068Z,63.50
2022-11-08T17:11:33.858Z,63.91
2022-11-08T17:14:03.324Z,63.96
2022-11-08T17:16:33.058Z,63.64
2022-11-08T17:19:04.644Z,63.60
2022-11-08T17:21:50.077Z,62.85
2022-11-08T17:24:07.384Z,62.85
2022-11-08T17:26:37.195Z,63.37
2022-11-08T17:29:08.018Z,63.76
2022-11-08T17:31:38.116Z,63.74
2022-11-08T17:34:11.030Z,64.01
2022-11-08T17:36:40.860Z,63.83
2022-11-08T17:39:12.251Z,63.29
2022-11-08T17:41:41.968Z,62.87
2022-11-08T17:44:14.544Z,63.06
2022-11-08T17:46:44.282Z,63.93
2022-11-08T17:49:14.185Z,64.22
2022-11-08T17:51:43.936Z,63.93
2022-11-08T17:54:15.570Z,64.53
2022-11-08T17:56:45.307Z,64.42
2022-11-08T17:59:15.706Z,65.01
2022-11-08T18:01:46.405Z,64.72
2022-11-08T18:04:15.879Z,64.64
2022-11-08T18:06:45.954Z,65.40
2022-11-08T18:09:15.689Z,65.49
2022-11-08T18:11:47.095Z,65.01
2022-11-08T18:14:18.798Z,65.29
2022-11-08T18:16:49.287Z,65.70
2022-11-08T18:19:22.227Z,65.00
2022-11-08T18:21:52.029Z,65.79
2022-11-08T18:24:22.293Z,65.56
2022-11-08T18:26:52.112Z,65.51
2022-11-08T18:29:22.165Z,65.71
2022-11-08T18:31:51.925Z,66.01
2022-11-08T18:34:21.666Z,65.94
2022-11-08T18:36:51.396Z,65.89
2022-11-08T18:39:21.432Z,66.19
2022-11-08T18:41:51.251Z,65.72
2022-11-08T18:44:21.039Z,66.47
2022-11-08T18:46:50.807Z,65.98
2022-11-08T18:49:20.919Z,66.19
2022-11-08T18:51:52.627Z,66.19
2022-11-08T18:54:22.636Z,66.57
2022-11-08T18:56:52.416Z,65.75
2022-11-08T18:59:22.630Z,65.75
2022-11-08T19:01:52.398Z,66.62
2022-11-08T19:04:22.931Z,66.91
2022-11-08T19:06:54.792Z,66.58
2022-11-08T19:09:24.423Z,67.11
2022-11-08T19:11:54.152Z,66.11
2022-11-08T19:14:24.014Z,65.97
2022-11-08T19:16:55.385Z,65.83
2022-11-08T19:19:25.507Z,66.14
2022-11-08T19:21:55.281Z,66.06
2022-11-08T19:24:24.989Z,66.39
2022-11-08T19:26:55.023Z,66.72
2022-11-08T19:29:24.800Z,66.42
2022-11-08T19:31:54.538Z,66.13
2022-11-08T19:34:24.281Z,66.20
2022-11-08T19:36:56.062Z,65.78
2022-11-08T19:39:25.521Z,65.86
2022-11-08T19:41:54.946Z,65.86
2022-11-08T19:44:24.811Z,66.19
2022-11-08T19:46:54.566Z,66.36
2022-11-08T19:49:25.724Z,66.29
2022-11-08T19:51:55.460Z,65.84
2022-11-08T19:54:25.182Z,66.12
2022-11-08T19:57:10.268Z,65.97
2022-11-08T19:59:26.395Z,66.06
2022-11-08T20:01:56.212Z,65.27
2022-11-08T20:04:26.019Z,66.01
2022-11-08T20:06:56.096Z,66.11
2022-11-08T20:09:30.267Z,66.11
2022-11-08T20:11:57.285Z,65.70
2022-11-08T20:14:27.323Z,65.93
2022-11-08T20:16:57.066Z,65.38
2022-11-08T20:19:26.793Z,65.38
2022-11-08T20:21:58.400Z,65.79
2022-11-08T20:24:28.031Z,65.38
2022-11-08T20:26:57.754Z,65.23
2022-11-08T20:29:27.567Z,65.34
2022-11-08T20:31:57.315Z,65.23
2022-11-08T20:34:27.284Z,65.25
2022-11-08T20:36:57.162Z,65.18
2022-11-08T20:39:26.928Z,65.75
2022-11-08T20:41:56.661Z,65.04
2022-11-08T20:44:26.391Z,65.54
2022-11-08T20:46:55.834Z,64.96
2022-11-08T20:49:25.566Z,65.57
2022-11-08T20:51:55.291Z,65.35
2022-11-08T20:54:25.058Z,65.65
2022-11-08T20:56:54.802Z,64.91
2022-11-08T20:59:24.532Z,65.69
2022-11-08T21:01:54.887Z,65.32
2022-11-08T21:04:24.925Z,65.12
2022-11-08T21:07:42.581Z,65.19
2022-11-08T21:09:41.600Z,65.54
2022-11-08T21:12:00.768Z,65.54
2022-11-08T21:14:30.580Z,65.07
2022-11-08T21:17:21.289Z,65.23
2022-11-08T21:19:32.045Z,65.38
2022-11-08T21:22:16.900Z,64.92
2022-11-08T21:24:49.025Z,65.55
2022-11-08T21:27:18.915Z,65.55
2022-11-08T21:29:48.956Z,65.92
2022-11-08T21:32:18.705Z,65.92
2022-11-08T21:34:48.517Z,65.65
2022-11-08T21:37:18.258Z,65.17
2022-11-08T21:39:48.075Z,66.41
2022-11-08T21:42:17.810Z,66.71
2022-11-08T21:44:47.567Z,66.16
2022-11-08T21:47:17.042Z,66.13
2022-11-08T21:49:46.838Z,66.89
2022-11-08T21:52:16.357Z,67.27
2022-11-08T21:54:46.138Z,68.02
2022-11-08T21:57:15.681Z,68.02
2022-11-08T21:59:45.694Z,66.79
2022-11-08T22:02:18.266Z,67.49
2022-11-08T22:04:48.017Z,67.49
2022-11-08T22:07:17.813Z,67.24
2022-11-08T22:09:47.540Z,67.71
2022-11-08T22:12:17.723Z,67.54
2022-11-08T22:14:47.444Z,68.01
2022-11-08T22:17:17.248Z,68.19
2022-11-08T22:19:47.194Z,67.50
2022-11-08T22:22:17.915Z,68.61
2022-11-08T22:24:47.652Z,68.61
2022-11-08T22:27:18.029Z,68.10
2022-11-08T22:29:47.768Z,68.79
2022-11-08T22:32:18.611Z,68.77
2022-11-08T22:34:48.355Z,68.77
2022-11-08T22:37:18.080Z,68.60
2022-11-08T22:39:47.800Z,69.24
2022-11-08T22:42:17.893Z,69.24
2022-11-08T22:44:47.705Z,68.93
2022-11-08T22:47:17.460Z,69.55
2022-11-08T22:49:47.210Z,69.24
2022-11-08T22:52:17.895Z,69.20
2022-11-08T22:54:47.642Z,69.21
2022-11-08T22:57:17.425Z,69.32
2022-11-08T22:59:46.909Z,68.99
2022-11-08T23:02:18.196Z,69.47
2022-11-08T23:04:47.980Z,69.87
2022-11-08T23:07:17.797Z,69.18
2022-11-08T23:09:47.918Z,69.71
2022-11-08T23:12:35.857Z,70.15
2022-11-08T23:15:23.848Z,70.55
2022-11-08T23:17:53.654Z,70.31
2022-11-08T23:20:40.824Z,70.16
2022-11-08T23:23:27.697Z,71.11
2022-11-08T23:25:57.779Z,70.94
2022-11-08T23:28:45.034Z,70.62
2022-11-08T23:31:32.370Z,70.08
2022-11-08T23:34:02.764Z,71.30
2022-11-08T23:36:32.237Z,70.96
2022-11-08T23:39:02.257Z,71.82
2022-11-08T23:41:49.535Z,71.82
2022-11-08T23:44:23.977Z,71.69
2022-11-08T23:46:59.226Z,71.74
2022-11-08T23:49:29.986Z,71.74
2022-11-08T23:51:59.725Z,72.04
2022-11-08T23:54:29.757Z,71.17
2022-11-08T23:56:59.748Z,71.51
2022-11-08T23:59:29.763Z,71.11
